地図

経路データ

SID SEASON NUMBER BASIN SUBBASIN NAME ISO_TIME NATURE LAT LON WMO_WIND WMO_PRES WMO_AGENCY TRACK_TYPE DIST2LAND LANDFALL IFLAG USA_AGENCY USA_ATCF_ID USA_LAT USA_LON USA_RECORD USA_STATUS USA_WIND USA_PRES USA_SSHS USA_R34_NE USA_R34_SE USA_R34_SW USA_R34_NW USA_R50_NE USA_R50_SE USA_R50_SW USA_R50_NW USA_R64_NE USA_R64_SE USA_R64_SW USA_R64_NW USA_POCI USA_ROCI USA_RMW USA_EYE TOKYO_LAT TOKYO_LON TOKYO_GRADE TOKYO_WIND TOKYO_PRES TOKYO_R50_DIR TOKYO_R50_LONG TOKYO_R50_SHORT TOKYO_R30_DIR TOKYO_R30_LONG TOKYO_R30_SHORT TOKYO_LAND CMA_LAT CMA_LON CMA_CAT CMA_WIND CMA_PRES HKO_LAT HKO_LON HKO_CAT HKO_WIND HKO_PRES NEWDELHI_LAT NEWDELHI_LON NEWDELHI_GRADE NEWDELHI_WIND NEWDELHI_PRES NEWDELHI_CI NEWDELHI_DP NEWDELHI_POCI REUNION_LAT REUNION_LON REUNION_TYPE REUNION_WIND REUNION_PRES REUNION_TNUM REUNION_CI REUNION_RMW REUNION_R34_NE REUNION_R34_SE REUNION_R34_SW REUNION_R34_NW REUNION_R50_NE REUNION_R50_SE REUNION_R50_SW REUNION_R50_NW REUNION_R64_NE REUNION_R64_SE REUNION_R64_SW REUNION_R64_NW BOM_LAT BOM_LON BOM_TYPE BOM_WIND BOM_PRES BOM_TNUM BOM_CI BOM_RMW BOM_R34_NE BOM_R34_SE BOM_R34_SW BOM_R34_NW BOM_R50_NE BOM_R50_SE BOM_R50_SW BOM_R50_NW BOM_R64_NE BOM_R64_SE BOM_R64_SW BOM_R64_NW BOM_ROCI BOM_POCI BOM_EYE BOM_POS_METHOD BOM_PRES_METHOD NADI_LAT NADI_LON NADI_CAT NADI_WIND NADI_PRES WELLINGTON_LAT WELLINGTON_LON WELLINGTON_WIND WELLINGTON_PRES DS824_LAT DS824_LON DS824_STAGE DS824_WIND DS824_PRES TD9636_LAT TD9636_LON TD9636_STAGE TD9636_WIND TD9636_PRES TD9635_LAT TD9635_LON TD9635_WIND TD9635_PRES TD9635_ROCI NEUMANN_LAT NEUMANN_LON NEUMANN_CLASS NEUMANN_WIND NEUMANN_PRES MLC_LAT MLC_LON MLC_CLASS MLC_WIND MLC_PRES USA_GUST BOM_GUST BOM_GUST_PER REUNION_GUST REUNION_GUST_PER USA_SEAHGT USA_SEARAD_NE USA_SEARAD_SE USA_SEARAD_SW USA_SEARAD_NW STORM_SPEED STORM_DIR
2010136N09057 2010 23 NI AS BANDU 2010-05-15 12:00:00 NR 9.30000 56.5000 main 429 429 O_____________ jtwc_io IO022010 9.30000 56.5000 DB 15 1010 -3 850 6 87
2010136N09057 2010 23 NI AS BANDU 2010-05-15 15:00:00 NR 9.31508 56.7950 main 446 444 P_____________ IO022010 9.31508 56.7950 DB 15 1010 -3 850 5 79
2010136N09057 2010 23 NI AS BANDU 2010-05-15 18:00:00 NR 9.40000 57.0000 main 450 439 O_____________ jtwc_io IO022010 9.40000 57.0000 DB 15 1010 -3 850 4 42
2010136N09057 2010 23 NI AS BANDU 2010-05-15 21:00:00 NR 9.59247 57.0525 main 439 415 P_____________ IO022010 9.59247 57.0525 DB 15 1010 -3 850 4 0
2010136N09057 2010 23 NI AS BANDU 2010-05-16 00:00:00 NR 9.80000 57.0000 main 415 407 O_____________ jtwc_io IO022010 9.80000 57.0000 DB 15 1010 -3 850 3 343
2010136N09057 2010 23 NI AS BANDU 2010-05-16 03:00:00 NR 9.92244 56.9525 main 407 384 P_____________ IO022010 9.92244 56.9525 DB 15 1010 -3 850 3 315
2010136N09057 2010 23 NI AS BANDU 2010-05-16 06:00:00 NR 10.0000 56.8000 main 384 354 O_____________ jtwc_io IO022010 10.0000 56.8000 DB 15 1010 -3 850 5 287
2010136N09057 2010 23 NI AS BANDU 2010-05-16 09:00:00 NR 10.0802 56.4425 main 348 329 P_____________ IO022010 10.0802 56.4425 DB 15 1010 -3 850 7 278
2010136N09057 2010 23 NI AS BANDU 2010-05-16 12:00:00 NR 10.1000 56.1000 main 329 324 O_____________ jtwc_io IO022010 10.1000 56.1000 DB 15 1010 -3 850 5 264
2010136N09057 2010 23 NI AS BANDU 2010-05-16 15:00:00 NR 10.0299 55.9524 main 334 328 P_____________ IO022010 10.0299 55.9524 DB 15 1010 -3 850 2 207
2010136N09057 2010 23 NI AS BANDU 2010-05-16 18:00:00 NR 9.90000 56.0000 main 343 343 O_____________ jtwc_io IO022010 9.90000 56.0000 DB 15 1010 -3 850 4 137
2010136N09057 2010 23 NI AS BANDU 2010-05-16 21:00:00 NR 9.72753 56.2401 main 374 374 P_____________ IO022010 9.72753 56.2401 DB 15 1010 -3 850 7 117
2010136N09057 2010 23 NI AS BANDU 2010-05-17 00:00:00 NR 9.60000 56.6000 main 406 406 O_____________ jtwc_io IO022010 9.60000 56.6000 DB 15 1010 -3 850 7 96
2010136N09057 2010 23 NI AS BANDU 2010-05-17 03:00:00 NR 9.65756 56.9723 main 424 424 P_____________ IO022010 9.65756 56.9723 DB 15 1010 -3 850 7 82
2010136N09057 2010 23 NI AS BANDU 2010-05-17 06:00:00 NR 9.70000 57.3000 main 446 446 O_____________ jtwc_io IO022010 9.70000 57.3000 DB 15 1010 -3 850 6 102
2010136N09057 2010 23 NI AS BANDU 2010-05-17 09:00:00 NR 9.53745 57.5251 main 477 477 P_____________ IO022010 9.53745 57.5251 DB 15 1010 -3 850 5 144
2010136N09057 2010 23 NI AS BANDU 2010-05-17 12:00:00 NR 9.30000 57.6000 main 501 501 O_____________ jtwc_io IO022010 9.30000 57.6000 DB 15 1010 -3 850 5 0
2010136N09057 2010 23 NI AS BANDU 2010-05-17 15:00:00 NR 9.04747 57.5174 main 519 512 P_____________ IO022010 9.04747 57.5174 DB 15 1010 -3 850 5 216
2010136N09057 2010 23 NI AS BANDU 2010-05-17 18:00:00 NR 8.90000 57.3000 main 515 487 O_____________ jtwc_io IO022010 8.90000 57.3000 DB 15 1010 -3 850 5 264
2010136N09057 2010 23 NI AS BANDU 2010-05-17 21:00:00 NR 8.99008 56.9926 main 487 450 P_____________ IO022010 8.99008 56.9926 DB 15 1010 -3 850 7 297
2010136N09057 2010 23 NI AS BANDU 2010-05-18 00:00:00 NR 9.20000 56.7000 main 450 425 O_____________ jtwc_io IO022010 9.20000 56.7000 DB 15 1010 -3 850 6 314
2010136N09057 2010 23 NI AS BANDU 2010-05-18 03:00:00 NR 9.37744 56.5849 main 425 400 P_____________ IO022010 9.37744 56.5849 DB 15 1010 -3 850 4 334
2010136N09057 2010 23 NI AS BANDU 2010-05-18 06:00:00 NR 9.60000 56.5000 main 400 360 O_____________ jtwc_io IO022010 9.60000 56.5000 DB 15 1010 -3 850 6 335
2010136N09057 2010 23 NI AS BANDU 2010-05-18 09:00:00 NR 9.89996 56.3375 main 360 320 P_____________ IO022010 9.89996 56.3375 DB 15 1010 -3 850 7 327
2010136N09057 2010 23 NI AS BANDU 2010-05-18 12:00:00 NR 10.2000 56.1000 main 320 284 O_____________ jtwc_io IO022010 10.2000 56.1000 DB 15 1010 -3 850 8 314
2010136N09057 2010 23 NI AS BANDU 2010-05-18 15:00:00 NR 10.4225 55.7875 main 284 244 P_____________ IO022010 10.4225 55.7875 DB 17 1008 -3 850 8 300
2010136N09057 2010 23 NI AS BANDU 2010-05-18 18:00:00 NR 10.6000 55.4000 main 244 200 O_____________ jtwc_io IO022010 10.6000 55.4000 DB 20 1007 -3 850 9 292
2010136N09057 2010 23 NI AS BANDU 2010-05-18 21:00:00 NR 10.7651 54.9350 main 194 165 P_____________ IO022010 10.7651 54.9350 DB 22 1005 -3 929 9 289
2010136N09057 2010 23 NI AS BANDU 2010-05-19 00:00:00 TS 10.9000 54.5000 main 165 147 O_____________ jtwc_io IO022010 10.9000 54.5000 TD 25 1004 -1 1008 150 50 7 289
2010136N09057 2010 23 NI AS BANDU 2010-05-19 03:00:00 TS 11.0074 54.2199 main 147 134 P_____________ IO022010 11.0074 54.2199 TD 27 1002 -1 1008 150 50 5 292
2010136N09057 2010 23 NI AS BANDU 2010-05-19 06:00:00 TS 11.1000 54.0000 main 134 134 O_____________ jtwc_io IO022010 11.1000 54.0000 TD 30 1000 -1 1008 150 50 4 278
2010136N09057 2010 23 NI AS BANDU 2010-05-19 09:00:00 TS 11.0660 53.7940 25 1002 newdelhi main 134 123 P___O_________ IO022010 11.2075 53.7425 TD 32 998 -1 1008 155 50 10.5000 54.0000 D 25 1002 1.50000 3 287
2010136N09057 2010 23 NI AS BANDU 2010-05-19 12:00:00 TS 11.2000 53.6667 25 1002 newdelhi main 123 103 O___O_________ jtwc_io IO022010 11.3000 53.5000 TS 35 996 0 1008 160 50 11.0000 54.0000 D 25 1002 1.50000 5 310
2010136N09057 2010 23 NI AS BANDU 2010-05-19 15:00:00 TS 11.4100 53.3728 25 1002 newdelhi main 103 103 P___O_________ IO022010 11.3425 53.2775 TS 35 996 0 1007 157 40 11.5000 53.5000 D 25 1002 1.50000 4 305
2010136N09057 2010 23 NI AS BANDU 2010-05-19 18:00:00 TS 11.4500 53.3000 30 1000 newdelhi main 95 95 O___O_________ jtwc_io IO022010 11.4000 53.1000 TS 35 996 0 1006 155 30 11.5000 53.5000 DD 30 1000 2.00000 4 286
2010136N09057 2010 23 NI AS BANDU 2010-05-19 21:00:00 TS 11.5175 52.9925 30 1000 newdelhi main 110 102 P___O_________ IO022010 11.5350 52.9850 TS 37 994 0 1006 150 30 11.5000 53.0000 DD 30 1000 2.00000 4 294
2010136N09057 2010 23 NI AS BANDU 2010-05-20 00:00:00 TS 11.6000 52.9500 30 1000 newdelhi main 102 99 O___O_________ jtwc_io IO022010 11.7000 52.9000 TS 40 993 0 45 40 40 40 1007 145 30 11.5000 53.0000 DD 30 1000 2.00000 2 330
2010136N09057 2010 23 NI AS BANDU 2010-05-20 03:00:00 TS 11.6787 52.9000 30 999 newdelhi main 99 99 P___O_________ IO022010 11.8575 52.8000 TS 40 993 0 45 40 40 40 1007 145 30 11.5000 53.0000 DD 30 999 2.00000 2 328
2010136N09057 2010 23 NI AS BANDU 2010-05-20 06:00:00 TS 11.7500 52.8500 30 999 newdelhi main 89 78 O___O_________ jtwc_io IO022010 12.0000 52.7000 TS 40 993 0 45 40 40 40 1007 145 30 11.5000 53.0000 DD 30 999 2.00000 4 345
2010136N09057 2010 23 NI AS BANDU 2010-05-20 09:00:00 TS 12.0537 52.8000 30 999 newdelhi main 70 70 P___O_________ IO022010 12.1075 52.6000 TS 42 991 0 45 40 40 42 1007 106 30 12.0000 53.0000 DD 30 999 2.00000 7 330
2010136N09057 2010 23 NI AS BANDU 2010-05-20 12:00:00 TS 12.3500 52.5000 30 999 newdelhi main 87 87 O___O_________ jtwc_io IO022010 12.2000 52.5000 TS 45 989 0 45 40 40 45 1007 67 30 12.5000 52.5000 DD 30 999 2.00000 7 303
2010136N09057 2010 23 NI AS BANDU 2010-05-20 15:00:00 TS 12.4512 52.1657 main 119 93 P___P_________ IO022010 12.3000 52.4000 TS 45 989 0 45 40 40 45 1005 86 30 12.6024 51.9314 DD 30 999 6 280
2010136N09057 2010 23 NI AS BANDU 2010-05-20 18:00:00 TS 12.4500 51.9000 30 999 newdelhi main 102 95 O___O_________ jtwc_io IO022010 12.4000 52.3000 TS 45 989 0 45 40 40 45 1003 105 30 12.5000 51.5000 DD 30 999 2.00000 3 279
2010136N09057 2010 23 NI AS BANDU 2010-05-20 21:00:00 TS 12.5037 51.8197 main 95 95 P___P_________ IO022010 12.5075 52.2075 TS 45 989 0 47 47 42 45 1003 92 32 12.4999 51.4318 DD 30 998 1 317
2010136N09057 2010 23 NI AS BANDU 2010-05-21 00:00:00 TS 12.5500 51.8000 30 998 newdelhi main 104 95 O___O_________ jtwc_io IO022010 12.6000 52.1000 TS 45 989 0 50 55 45 45 1003 80 35 12.5000 51.5000 DD 30 998 2.00000 1 305
2010136N09057 2010 23 NI AS BANDU 2010-05-21 03:00:00 TS 12.5788 51.7138 30 998 newdelhi main 99 99 P___O_________ IO022010 12.6575 51.9275 TS 50 985 0 60 60 52 52 20 17 15 15 1003 90 35 12.5000 51.5000 DD 30 998 2.00000 2 288
2010136N09057 2010 23 NI AS BANDU 2010-05-21 06:00:00 TS 12.6000 51.6500 30 998 newdelhi main 99 95 O___O_________ jtwc_io IO022010 12.7000 51.8000 TS 55 982 0 70 65 60 60 40 35 30 30 1003 100 35 12.5000 51.5000 DD 30 998 2.00000 1 327
2010136N09057 2010 23 NI AS BANDU 2010-05-21 09:00:00 TS 12.6362 51.6675 30 996 newdelhi main 99 99 P___O_________ IO022010 12.7725 51.8350 TS 55 982 0 70 65 60 60 40 35 30 30 1003 100 35 12.5000 51.5000 DD 30 996 2.00000 1 51
2010136N09057 2010 23 NI AS BANDU 2010-05-21 12:00:00 TS 12.6500 51.7000 40 994 newdelhi main 109 99 O___O_________ jtwc_io IO022010 12.8000 51.9000 TS 55 982 0 70 65 60 60 40 35 30 30 1003 100 35 12.5000 51.5000 CS 40 994 2.50000 0 145
2010136N09057 2010 23 NI AS BANDU 2010-05-21 15:00:00 TS 12.6037 51.6900 40 994 newdelhi main 99 99 P___O_________ IO022010 12.7075 51.8800 TS 52 983 0 67 62 57 57 1002 100 35 12.5000 51.5000 CS 40 994 2.50000 1 207
2010136N09057 2010 23 NI AS BANDU 2010-05-21 18:00:00 TS 12.5500 51.6500 40 994 newdelhi main 99 74 O___O_________ jtwc_io IO022010 12.6000 51.8000 TS 50 985 0 65 60 55 55 1002 100 35 12.5000 51.5000 CS 40 994 2.50000 4 260
2010136N09057 2010 23 NI AS BANDU 2010-05-21 21:00:00 TS 12.5425 51.3288 40 994 newdelhi main 74 67 P___O_________ IO022010 12.5850 51.6575 TS 47 987 0 60 57 52 55 1002 95 35 12.5000 51.0000 CS 40 994 2.50000 6 270
2010136N09057 2010 23 NI AS BANDU 2010-05-22 00:00:00 TS 12.5500 51.0000 40 994 newdelhi main 78 67 O___O_________ jtwc_io IO022010 12.6000 51.5000 TS 45 989 0 55 55 50 55 1003 90 35 12.5000 50.5000 CS 40 994 2.50000 55 4 271
2010136N09057 2010 23 NI AS BANDU 2010-05-22 03:00:00 TS 12.5500 50.9463 40 994 newdelhi main 78 67 P___O_________ IO022010 12.6000 51.3925 TS 42 991 0 55 52 50 55 1003 95 35 12.5000 50.5000 CS 40 994 2.50000 1 270
2010136N09057 2010 23 NI AS BANDU 2010-05-22 06:00:00 TS 12.5500 50.9000 40 994 newdelhi main 78 67 O___O_________ jtwc_io IO022010 12.6000 51.3000 TS 40 993 0 55 50 50 55 1003 100 35 12.5000 50.5000 CS 40 994 2.50000 3 270
2010136N09057 2010 23 NI AS BANDU 2010-05-22 09:00:00 TS 12.5500 50.6075 35 996 newdelhi main 67 67 P___O_________ IO022010 12.6000 51.2150 TS 37 994 0 55 50 50 55 1003 100 35 12.5000 50.0000 CS 35 996 2.50000 3 270
2010136N09057 2010 23 NI AS BANDU 2010-05-22 12:00:00 TS 12.5500 50.5500 30 998 newdelhi main 78 67 O___O_________ jtwc_io IO022010 12.6000 51.1000 TS 35 996 0 55 50 50 55 1003 100 35 12.5000 50.0000 DD 30 998 2.00000 1 270
2010136N09057 2010 23 NI AS BANDU 2010-05-22 15:00:00 TS 12.5500 50.4763 main 79 79 P___P_________ IO022010 12.6001 50.9200 TS 32 998 -1 1003 100 35 12.5000 50.0326 DD 27 999 2 270
2010136N09057 2010 23 NI AS BANDU 2010-05-22 18:00:00 TS 12.5500 50.3500 25 1000 newdelhi main 81 O___O_________ jtwc_io IO022010 12.6000 50.7000 TD 30 1000 -1 1003 100 35 12.5000 50.0000 D 25 1000 1.50000 2 270

IBTrACS Databaseについて

本データベースは、米国NOAAが公開する1842年以降の世界の熱帯低気圧のベストトラックデータアーカイブInternational Best Track Archive for Climate Stewardship (IBTrACS)を、ウェブで閲覧しやすい形式に変換したものです。

最終更新日:2021-10-21